Time;durP1;ratioP1;P1;durP2;ratioP2;P2;SDS_P1;SDS_P2;PMS_P1;PMS_P2;Temp;Humidity;BMP_temperature;BMP_pressure;BME280_temperature;BME280_humidity;BME280_pressure;Samples;Min_cycle;Max_cycle;Signal;HPM_P1;HPM_P2
2022/05/02 12:18:20;;;;;;;13.75;8.93;;;;;;;21.40;35.96;102145.78;5017456;28;20434;-59
2022/05/02 12:20:52;;;;;;;15.82;9.00;;;;;;;21.42;35.27;102144.84;5040722;28;20056;-60
2022/05/02 12:23:22;;;;;;;13.80;9.82;;;;;;;21.36;36.18;102144.91;5035963;28;20088;-58
2022/05/02 12:25:50;;;;;;;14.05;8.85;;;;;;;21.36;36.18;102141.38;5037804;28;20036;-58
2022/05/02 12:28:19;;;;;;;14.82;9.77;;;;;;;21.33;35.90;102137.00;5026075;28;20052;-58
2022/05/02 12:30:52;;;;;;;14.13;9.20;;;;;;;21.41;36.16;102145.72;5020544;28;20052;-58
2022/05/02 12:33:19;;;;;;;12.75;9.50;;;;;;;21.15;35.96;102137.19;5014654;28;20033;-59
2022/05/02 12:35:45;;;;;;;13.00;9.10;;;;;;;21.14;37.44;102134.53;5035586;28;20049;-59
2022/05/02 12:38:15;;;;;;;13.68;9.05;;;;;;;20.95;35.71;102125.88;5025176;28;20351;-58
2022/05/02 12:40:41;;;;;;;13.13;9.20;;;;;;;20.97;36.42;102126.75;5034814;28;20146;-58
2022/05/02 12:43:20;;;;;;;12.93;8.80;;;;;;;20.97;37.43;102124.09;5035377;28;20059;-58
2022/05/02 12:45:47;;;;;;;13.55;9.70;;;;;;;21.05;37.40;102128.41;5035427;28;20042;-60
2022/05/02 12:48:29;;;;;;;14.50;8.88;;;;;;;21.05;36.58;102124.88;5029484;28;20060;-57
2022/05/02 12:51:00;;;;;;;14.00;9.60;;;;;;;21.00;36.53;102124.94;5028843;28;20375;-57
2022/05/02 12:56:12;;;;;;;11.95;9.05;;;;;;;20.75;36.33;102126.03;5015473;28;20078;-60
2022/05/02 13:01:24;;;;;;;15.95;9.85;;;;;;;20.67;36.77;102125.25;5033962;28;20086;-59
2022/05/02 13:03:57;;;;;;;13.40;9.95;;;;;;;20.61;36.12;102127.94;5033586;28;20056;-59
2022/05/02 13:06:24;;;;;;;14.82;9.68;;;;;;;20.67;35.90;102119.06;5030809;28;20346;-59
2022/05/02 13:08:50;;;;;;;14.95;9.80;;;;;;;20.67;35.48;102123.44;5039812;28;20040;-58
2022/05/02 13:11:22;;;;;;;14.25;9.98;;;;;;;20.35;35.18;102114.91;5033936;28;20067;-60
2022/05/02 13:13:53;;;;;;;12.02;9.50;;;;;;;19.98;36.55;102114.22;5038267;28;20487;-58
2022/05/02 13:16:28;;;;;;;13.32;9.70;;;;;;;20.07;37.07;102118.56;5037712;28;20831;-58
2022/05/02 13:18:55;;;;;;;12.15;9.30;;;;;;;20.02;37.41;102107.13;5041121;28;20303;-57
2022/05/02 13:21:21;;;;;;;13.95;9.75;;;;;;;20.10;37.64;102105.31;5048814;28;20083;-57
2022/05/02 13:23:49;;;;;;;13.38;9.65;;;;;;;20.19;37.14;102111.44;5041204;28;20044;-57
2022/05/02 13:26:37;;;;;;;13.80;8.95;;;;;;;20.34;37.67;102107.84;5034149;28;20055;-57
2022/05/02 13:29:28;;;;;;;13.07;9.25;;;;;;;20.34;37.89;102097.25;5041224;28;20057;-60
2022/05/02 13:31:56;;;;;;;12.07;9.07;;;;;;;20.40;37.51;102104.25;5038363;28;20080;-61
2022/05/02 13:34:31;;;;;;;11.40;8.50;;;;;;;20.26;36.43;102101.66;5033797;28;20323;-59
2022/05/02 13:37:03;;;;;;;11.95;8.27;;;;;;;20.23;36.92;102099.94;5032499;28;20128;-60
2022/05/02 13:39:51;;;;;;;12.98;8.80;;;;;;;20.21;37.73;102087.59;5040758;28;20166;-59
2022/05/02 13:42:46;;;;;;;10.90;8.60;;;;;;;20.01;36.87;102100.06;5031780;28;20044;-60
2022/05/02 13:45:30;;;;;;;12.75;8.50;;;;;;;19.94;37.54;102090.44;5029307;28;20044;-59
2022/05/02 13:48:20;;;;;;;12.90;9.52;;;;;;;19.84;37.89;102087.81;5028551;28;20131;-58
2022/05/02 13:50:57;;;;;;;16.55;8.93;;;;;;;19.89;38.45;102093.09;5027767;28;20336;-58
2022/05/02 13:53:57;;;;;;;12.93;8.30;;;;;;;19.96;39.31;102094.81;5038809;28;20064;-59
2022/05/02 13:56:43;;;;;;;12.18;8.10;;;;;;;19.96;38.31;102078.94;5030627;28;20479;-58
2022/05/02 13:59:27;;;;;;;12.25;7.38;;;;;;;19.94;38.01;102087.78;5023995;28;20044;-60
2022/05/02 14:02:09;;;;;;;15.65;8.43;;;;;;;19.85;36.74;102086.94;5036773;28;20151;-59
2022/05/02 14:04:39;;;;;;;11.90;7.75;;;;;;;19.87;38.26;102088.72;5038377;28;20036;-59
2022/05/02 14:07:14;;;;;;;13.60;8.55;;;;;;;19.79;37.35;102080.81;5034017;28;20294;-58
2022/05/02 14:09:44;;;;;;;;;;;;;;;19.75;37.90;102087.00;5040536;28;20045;-59
2022/05/02 14:12:28;;;;;;;12.68;8.20;;;;;;;19.59;38.10;102080.91;5034770;28;20438;-60
2022/05/02 14:15:14;;;;;;;13.40;8.95;;;;;;;19.43;37.39;102082.69;5032131;28;20272;-59
2022/05/02 14:17:44;;;;;;;11.00;7.75;;;;;;;19.52;37.46;102084.44;5037615;28;20102;-58
2022/05/02 14:20:22;;;;;;;13.73;7.10;;;;;;;19.52;38.13;102081.81;5008568;28;20044;-58
2022/05/02 14:23:08;;;;;;;12.13;7.18;;;;;;;19.04;37.50;102080.16;5028122;28;20063;-58
2022/05/02 14:25:35;;;;;;;9.43;6.88;;;;;;;19.12;37.87;102074.88;5037716;28;20407;-58
2022/05/02 14:28:10;;;;;;;12.23;7.40;;;;;;;19.18;39.08;102077.50;5029955;28;20033;-58
2022/05/02 14:30:38;;;;;;;10.20;6.88;;;;;;;19.34;39.07;102071.25;5037700;28;20052;-59
2022/05/02 14:33:05;;;;;;;9.07;6.60;;;;;;;19.46;39.25;102075.69;5039746;28;20055;-60
2022/05/02 14:35:37;;;;;;;8.70;6.15;;;;;;;19.30;38.11;102073.06;5042250;28;20095;-59
2022/05/02 14:38:05;;;;;;;8.00;5.93;;;;;;;19.25;38.33;102069.56;5014140;28;20040;-59
2022/05/02 14:40:31;;;;;;;10.18;6.00;;;;;;;19.08;38.95;102067.84;5028804;28;20044;-58
2022/05/02 14:42:58;;;;;;;11.70;6.43;;;;;;;19.07;38.68;102068.72;5039944;28;20045;-58
2022/05/02 14:45:25;;;;;;;9.45;5.93;;;;;;;19.08;39.45;102070.50;5038697;28;20245;-58
2022/05/02 14:47:51;;;;;;;8.70;6.00;;;;;;;19.10;39.13;102069.59;5040094;28;20738;-58
2022/05/02 14:50:20;;;;;;;10.98;5.97;;;;;;;19.10;39.49;102073.97;5027893;28;20148;-59
2022/05/02 14:52:48;;;;;;;9.43;6.25;;;;;;;19.10;38.36;102076.63;5037576;28;20036;-57
2022/05/02 14:55:15;;;;;;;9.38;5.70;;;;;;;19.14;38.83;102079.28;5037333;28;20048;-59
2022/05/02 14:57:43;;;;;;;7.82;5.30;;;;;;;18.97;39.25;102076.66;5019496;28;20198;-59
2022/05/02 15:00:12;;;;;;;11.88;5.90;;;;;;;18.95;38.85;102074.91;5028465;28;20797;-58
2022/05/02 15:02:39;;;;;;;7.63;5.57;;;;;;;18.82;38.82;102071.41;5033769;28;20040;-58
2022/05/02 15:05:08;;;;;;;9.05;5.22;;;;;;;18.89;39.09;102073.16;5036206;28;20099;-59
2022/05/02 15:07:47;;;;;;;6.47;5.35;;;;;;;18.82;38.97;102065.25;5035375;28;20058;-58
2022/05/02 15:10:40;;;;;;;9.90;5.57;;;;;;;18.79;39.61;102062.59;5029279;28;20040;-57
2022/05/02 15:13:17;;;;;;;7.13;5.00;;;;;;;18.74;39.44;102061.72;5032748;28;20079;-60
2022/05/02 15:15:52;;;;;;;8.18;5.38;;;;;;;18.66;39.15;102061.75;5039736;28;20458;-60
2022/05/02 15:19:33;;;;;;;9.48;5.70;;;;;;;18.64;40.25;102071.44;5005600;28;20500;-59
2022/05/02 15:21:38;;;;;;;10.60;6.00;;;;;;;18.52;40.45;102069.66;5036914;28;20066;-58
2022/05/02 15:24:42;;;;;;;10.18;5.93;;;;;;;18.29;41.15;102067.91;5022204;28;20626;-58
2022/05/02 15:38:55;;;;;;;12.02;5.65;;;;;;;17.72;41.17;102073.06;5034590;28;21008;-58
2022/05/02 15:41:47;;;;;;;7.78;5.60;;;;;;;17.76;41.01;102063.38;5035329;28;20052;-59
2022/05/02 15:44:29;;;;;;;8.60;5.18;;;;;;;17.75;41.33;102066.91;5020498;28;20585;-59
2022/05/02 15:47:01;;;;;;;8.40;5.38;;;;;;;17.79;41.36;102074.84;5033805;28;20071;-60
2022/05/02 15:49:29;;;;;;;8.27;5.35;;;;;;;17.86;41.26;102065.19;5025933;28;20503;-59
2022/05/02 15:51:57;;;;;;;9.57;5.35;;;;;;;17.84;41.06;102074.84;5037199;28;20593;-58
2022/05/02 15:54:25;;;;;;;8.95;5.05;;;;;;;17.50;41.05;102065.03;5031245;28;20037;-59
2022/05/02 15:57:00;;;;;;;8.30;5.10;;;;;;;17.65;40.50;102066.00;5036767;28;20043;-62
2022/05/02 15:59:36;;;;;;;8.55;5.20;;;;;;;17.54;41.01;102062.41;5039668;28;20052;-57
2022/05/02 16:02:04;;;;;;;8.75;5.22;;;;;;;17.62;42.09;102073.91;5043105;28;20102;-59
2022/05/02 16:04:36;;;;;;;10.82;5.72;;;;;;;17.59;41.35;102071.22;5018562;28;20131;-59
2022/05/02 16:10:29;;;;;;;8.60;5.47;;;;;;;17.64;42.30;102071.25;5018861;28;20381;-59
2022/05/02 16:12:42;;;;;;;9.98;5.18;;;;;;;17.51;42.45;102074.69;5029994;28;20110;-60
2022/05/02 16:15:13;;;;;;;9.77;5.35;;;;;;;17.58;41.76;102066.81;5025063;28;20090;-59
2022/05/02 16:17:46;;;;;;;9.40;5.47;;;;;;;17.55;41.34;102064.19;5037917;28;20052;-58
2022/05/02 16:20:12;;;;;;;9.00;5.25;;;;;;;17.40;41.71;102062.34;5028201;28;20048;-60
2022/05/02 16:22:39;;;;;;;9.63;5.30;;;;;;;17.38;41.69;102061.47;5034967;28;20044;-58
2022/05/02 16:25:13;;;;;;;10.95;5.82;;;;;;;16.96;41.56;102067.38;5035917;28;20148;-59
2022/05/02 16:27:38;;;;;;;8.95;5.40;;;;;;;17.10;41.73;102059.56;5023014;28;20032;-58
2022/05/02 16:30:06;;;;;;;9.43;5.85;;;;;;;17.20;42.70;102069.28;5028393;28;20082;-57
2022/05/02 16:32:36;;;;;;;10.70;5.55;;;;;;;17.28;42.48;102053.50;5023106;28;20041;-60
2022/05/02 16:35:12;;;;;;;10.32;5.50;;;;;;;17.28;42.35;102057.03;5016736;28;20497;-59
2022/05/02 16:37:39;;;;;;;8.05;5.50;;;;;;;17.04;41.03;102064.81;5035783;28;20044;-59
2022/05/02 16:40:09;;;;;;;10.88;5.00;;;;;;;17.11;41.37;102057.81;5035147;28;20044;-58
2022/05/02 16:42:39;;;;;;;9.65;5.00;;;;;;;17.10;41.24;102069.22;5025939;28;20049;-59
2022/05/02 16:45:11;;;;;;;8.98;5.00;;;;;;;17.04;41.65;102057.78;5042247;28;20264;-58
2022/05/02 16:47:41;;;;;;;10.35;5.30;;;;;;;17.00;41.95;102061.28;5037943;28;20324;-59
2022/05/02 16:50:08;;;;;;;11.55;5.13;;;;;;;16.84;41.88;102054.16;5029694;28;20632;-57
2022/05/02 16:52:43;;;;;;;10.18;5.20;;;;;;;16.87;42.35;102055.94;5038424;28;20056;-58
2022/05/02 16:55:09;;;;;;;9.93;5.03;;;;;;;16.99;43.04;102053.38;5033246;28;20036;-58
2022/05/02 16:57:37;;;;;;;7.72;5.00;;;;;;;16.78;42.35;102056.72;5032032;28;20400;-59
2022/05/02 17:00:14;;;;;;;8.23;5.18;;;;;;;16.77;42.41;102056.75;5035391;28;20036;-59
2022/05/02 17:02:39;;;;;;;7.80;5.00;;;;;;;16.95;42.08;102059.50;5019939;28;20351;-59
2022/05/02 17:05:08;;;;;;;6.82;4.53;;;;;;;16.95;41.35;102062.13;5023602;28;20586;-57
2022/05/02 17:07:39;;;;;;;9.13;4.82;;;;;;;16.24;41.16;102060.69;5030000;28;20059;-60
2022/05/02 17:10:06;;;;;;;9.65;4.75;;;;;;;16.35;41.21;102057.25;5034195;28;20149;-58
2022/05/02 17:12:31;;;;;;;7.30;4.65;;;;;;;16.54;40.28;102062.69;5032844;28;20303;-59
2022/05/02 17:14:58;;;;;;;7.32;4.75;;;;;;;16.66;39.95;102063.66;5037164;28;20131;-59
2022/05/02 17:17:28;;;;;;;6.88;4.75;;;;;;;16.24;40.33;102067.69;5036400;28;20193;-59
2022/05/02 17:19:55;;;;;;;6.60;4.32;;;;;;;16.35;40.68;102059.88;5021822;28;20149;-59
2022/05/02 17:22:26;;;;;;;7.88;4.90;;;;;;;16.49;40.49;102063.50;5035865;28;20053;-58
2022/05/02 17:25:00;;;;;;;6.13;4.38;;;;;;;16.09;40.69;102068.44;5030930;28;20629;-58
2022/05/02 17:27:35;;;;;;;7.15;4.95;;;;;;;16.27;40.67;102058.94;5040085;28;20222;-60
2022/05/02 17:30:12;;;;;;;6.90;4.80;;;;;;;16.19;41.02;102064.13;5036219;28;20070;-60
2022/05/02 17:32:44;;;;;;;7.85;4.93;;;;;;;16.19;41.54;102059.75;5032639;28;20052;-61
2022/05/02 17:35:15;;;;;;;8.73;5.38;;;;;;;15.92;42.39;102067.38;5019681;28;20048;-58
2022/05/02 17:38:03;;;;;;;11.05;5.40;;;;;;;16.10;42.92;102067.53;5036540;28;20271;-59
2022/05/02 17:40:42;;;;;;;6.93;4.85;;;;;;;16.12;43.08;102060.56;5033843;28;20548;-58
2022/05/02 17:43:20;;;;;;;7.10;4.85;;;;;;;16.15;43.02;102062.34;5018848;28;20425;-58
2022/05/02 17:45:51;;;;;;;9.35;5.40;;;;;;;16.03;42.70;102068.38;5029981;28;20068;-58
2022/05/02 17:48:19;;;;;;;8.25;5.10;;;;;;;16.00;43.19;102067.44;5032247;28;20036;-61
2022/05/02 17:50:46;;;;;;;12.32;5.47;;;;;;;15.92;43.63;102072.63;5031242;28;20159;-58
2022/05/02 17:53:15;;;;;;;8.50;5.22;;;;;;;15.96;43.18;102071.81;5038135;28;20415;-57
2022/05/02 17:55:49;;;;;;;7.35;5.28;;;;;;;15.97;43.32;102073.56;5029685;28;20484;-57
2022/05/02 17:58:27;;;;;;;9.52;5.53;;;;;;;15.58;44.08;102075.75;5033454;28;20043;-59
2022/05/02 18:01:02;;;;;;;9.73;5.65;;;;;;;15.52;44.39;102071.31;5040696;28;20059;-57
2022/05/02 18:03:31;;;;;;;8.07;5.30;;;;;;;15.46;44.61;102075.56;5041621;28;20197;-59
2022/05/02 18:05:57;;;;;;;9.10;5.28;;;;;;;15.33;44.88;102075.41;5044356;28;20102;-59
2022/05/02 18:08:32;;;;;;;9.75;5.53;;;;;;;15.41;45.04;102076.41;5033226;28;20434;-59
2022/05/02 18:11:06;;;;;;;7.18;4.85;;;;;;;15.14;45.35;102078.66;5036627;28;20133;-59
2022/05/02 18:13:42;;;;;;;8.70;5.35;;;;;;;15.30;44.99;102079.75;5036411;28;20570;-62
2022/05/02 18:16:21;;;;;;;9.50;4.80;;;;;;;15.35;44.87;102073.69;5024427;28;20501;-61
2022/05/02 18:18:50;;;;;;;7.82;4.50;;;;;;;15.36;44.61;102085.09;5039380;28;20166;-57
2022/05/02 18:21:17;;;;;;;9.32;4.60;;;;;;;15.21;44.87;102082.25;5042754;28;20182;-59
2022/05/02 18:23:50;;;;;;;8.98;4.50;;;;;;;14.96;44.61;102078.38;5043107;28;20036;-60
2022/05/02 18:26:29;;;;;;;8.35;4.65;;;;;;;14.75;44.67;102081.59;5031611;28;20106;-59
2022/05/02 18:28:55;;;;;;;7.25;4.60;;;;;;;14.93;44.47;102088.88;5042405;28;20064;-60
2022/05/02 18:31:37;;;;;;;7.25;4.57;;;;;;;14.98;44.43;102093.31;5040283;28;20599;-61
2022/05/02 18:34:09;;;;;;;7.65;4.82;;;;;;;14.93;44.83;102084.50;5039722;28;20051;-59
2022/05/02 18:36:35;;;;;;;8.85;4.47;;;;;;;14.86;45.08;102092.25;5036699;28;20098;-56
2022/05/02 18:39:09;;;;;;;7.15;4.50;;;;;;;14.73;45.12;102087.66;5044322;28;20106;-58
2022/05/02 18:41:44;;;;;;;7.35;4.28;;;;;;;14.57;44.59;102100.56;5018975;28;20498;-60
2022/05/02 18:44:17;;;;;;;6.80;4.22;;;;;;;14.55;44.93;102099.66;5027749;28;20525;-58
2022/05/02 18:55:10;;;;;;;10.50;5.18;;;;;;;14.15;46.08;102102.38;5044280;28;20863;-62
2022/05/02 18:57:35;;;;;;;8.98;4.90;;;;;;;14.19;46.00;102098.97;5039248;28;20048;-58
2022/05/02 19:00:09;;;;;;;8.60;4.97;;;;;;;14.09;46.75;102108.41;5041036;28;20411;-60
2022/05/02 19:02:36;;;;;;;8.50;5.07;;;;;;;14.00;47.20;102115.22;5037483;28;20090;-60
2022/05/02 19:05:05;;;;;;;9.07;5.30;;;;;;;13.82;47.93;102108.78;5044330;28;20056;-60
2022/05/02 19:07:45;;;;;;;11.00;5.50;;;;;;;13.80;48.74;102114.81;5036166;28;20176;-59
2022/05/02 19:10:13;;;;;;;9.60;5.95;;;;;;;13.68;49.09;102112.84;5027543;28;20172;-60
2022/05/02 19:12:44;;;;;;;9.90;5.95;;;;;;;13.79;49.24;102118.28;5027536;28;20041;-59
2022/05/02 19:15:10;;;;;;;10.60;5.88;;;;;;;13.57;50.03;102126.56;5039664;28;20044;-61
2022/05/02 19:17:37;;;;;;;9.13;5.88;;;;;;;13.60;50.46;102132.75;5039729;28;20179;-59
2022/05/02 19:20:05;;;;;;;20.88;7.20;;;;;;;13.37;51.52;102132.28;5029550;28;20040;-57
2022/05/02 19:22:47;;;;;;;12.85;7.10;;;;;;;13.23;53.06;102128.47;5036066;28;20139;-61
2022/05/02 19:25:19;;;;;;;13.35;7.20;;;;;;;13.36;52.58;102133.13;5040306;28;20036;-60
2022/05/02 19:27:49;;;;;;;11.15;7.63;;;;;;;13.31;53.41;102132.13;5026618;28;20589;-58
2022/05/02 19:30:18;;;;;;;11.18;7.65;;;;;;;13.24;53.53;102137.19;5023273;28;20039;-59
2022/05/02 19:32:54;;;;;;;13.75;7.55;;;;;;;13.21;54.15;102137.16;5028384;28;20027;-59
2022/05/02 19:41:04;;;;;;;;;;;;;;;13.06;54.69;102144.59;5034400;28;20268;-61
2022/05/02 19:43:37;;;;;;;13.20;8.15;;;;;;;12.99;54.82;102139.22;5038139;28;20340;-59
2022/05/02 19:46:09;;;;;;;14.20;8.50;;;;;;;12.92;54.94;102139.94;5026307;28;20520;-58
2022/05/02 19:48:35;;;;;;;12.35;8.00;;;;;;;12.84;55.02;102138.88;5036371;28;20048;-61
2022/05/02 19:51:01;;;;;;;14.10;8.48;;;;;;;12.76;55.81;102139.50;5029233;28;20033;-60
2022/05/02 19:53:31;;;;;;;11.85;7.97;;;;;;;12.88;55.42;102147.66;5033543;28;20090;-58
2022/05/02 19:55:59;;;;;;;16.63;8.48;;;;;;;12.80;56.17;102146.63;5034704;28;20044;-57
2022/05/02 19:58:24;;;;;;;14.20;8.73;;;;;;;12.65;57.20;102143.59;5033331;28;20072;-60
2022/05/02 20:00:50;;;;;;;14.63;9.60;;;;;;;12.62;57.67;102143.53;5028273;28;20053;-59
2022/05/02 20:03:15;;;;;;;13.57;9.00;;;;;;;12.63;57.64;102148.78;5039520;28;20040;-59
2022/05/02 20:05:41;;;;;;;16.67;10.10;;;;;;;12.60;58.16;102152.22;5020499;28;20086;-60
2022/05/02 20:08:08;;;;;;;18.30;10.20;;;;;;;12.51;58.99;102144.13;5029442;28;20733;-58
2022/05/02 20:10:33;;;;;;;17.10;9.48;;;;;;;12.49;59.06;102150.19;5033015;28;20147;-57
2022/05/02 20:12:58;;;;;;;15.80;9.75;;;;;;;12.54;58.87;102151.19;5040735;28;20044;-59
2022/05/02 20:15:25;;;;;;;13.52;9.32;;;;;;;12.52;59.06;102151.13;5036557;28;20052;-61
2022/05/02 20:17:50;;;;;;;17.13;10.68;;;;;;;12.36;60.36;102148.97;5041137;28;20145;-59
2022/05/02 20:20:15;;;;;;;15.15;10.13;;;;;;;12.30;60.86;102155.78;5030507;28;20144;-59
2022/05/02 20:22:42;;;;;;;16.27;10.65;;;;;;;12.32;60.66;102154.09;5020672;28;20445;-59
2022/05/02 20:25:10;;;;;;;20.35;10.68;;;;;;;12.30;61.10;102145.31;5036837;28;20048;-59
2022/05/02 20:27:41;;;;;;;17.38;11.23;;;;;;;12.27;61.35;102140.00;5034621;28;20062;-58
2022/05/02 20:30:07;;;;;;;16.48;11.43;;;;;;;12.16;61.98;102140.59;5036258;28;20047;-57
2022/05/02 20:38:09;;;;;;;21.17;11.70;;;;;;;12.07;62.09;102137.75;5030706;28;20047;-60
2022/05/02 20:40:37;;;;;;;20.88;12.43;;;;;;;11.98;62.64;102136.59;5016084;28;20045;-59
2022/05/02 20:43:10;;;;;;;19.15;12.82;;;;;;;11.87;63.49;102138.91;5042680;28;20095;-60
2022/05/02 20:45:37;;;;;;;17.67;11.75;;;;;;;11.84;63.76;102136.19;5031310;28;20166;-60
2022/05/02 20:48:08;;;;;;;20.17;12.65;;;;;;;11.83;63.54;102147.53;5029917;28;20106;-60
2022/05/02 20:50:35;;;;;;;19.00;12.20;;;;;;;11.72;64.01;102143.66;5034908;28;20052;-58
2022/05/02 20:53:07;;;;;;;22.75;13.93;;;;;;;11.59;64.63;102142.41;5031767;28;20041;-59
2022/05/02 20:55:35;;;;;;;20.25;12.77;;;;;;;11.52;65.00;102142.22;5037192;28;20044;-60
2022/05/02 20:58:00;;;;;;;20.20;12.45;;;;;;;11.45;65.36;102142.88;5031642;28;20048;-60
2022/05/02 21:00:26;;;;;;;20.55;13.25;;;;;;;11.40;65.74;102137.50;5022535;28;20145;-57
2022/05/02 21:02:51;;;;;;;20.83;13.23;;;;;;;11.39;65.95;102141.84;5032766;28;20048;-59
2022/05/02 21:05:18;;;;;;;22.85;13.10;;;;;;;11.44;65.83;102147.19;5035052;28;20101;-59
2022/05/02 21:07:43;;;;;;;19.30;12.55;;;;;;;11.47;65.36;102144.66;5039491;28;20045;-60
2022/05/02 21:10:12;;;;;;;18.90;12.50;;;;;;;11.46;65.75;102147.25;5029772;28;20538;-57
2022/05/02 21:12:49;;;;;;;21.48;13.52;;;;;;;11.46;65.68;102142.91;5028843;28;20154;-60
2022/05/02 21:15:29;;;;;;;19.20;13.00;;;;;;;11.44;65.36;102146.31;5039704;28;20182;-60
2022/05/02 21:18:17;;;;;;;22.55;13.13;;;;;;;11.39;65.51;102141.84;5020888;28;20060;-59
2022/05/02 21:20:54;;;;;;;21.92;13.63;;;;;;;11.36;65.36;102148.69;5038144;28;20080;-59
2022/05/02 21:23:31;;;;;;;22.55;13.70;;;;;;;11.28;65.68;102152.81;5030657;28;20037;-59
2022/05/02 21:26:05;;;;;;;22.17;13.02;;;;;;;11.39;64.86;102152.28;5038442;28;20051;-58
2022/05/02 21:28:44;;;;;;;23.88;14.07;;;;;;;11.31;65.33;102156.38;5021976;28;20036;-60
2022/05/02 21:31:09;;;;;;;23.60;13.60;;;;;;;11.27;65.35;102166.69;5033469;28;20467;-60
2022/05/02 21:33:48;;;;;;;21.08;13.20;;;;;;;11.28;65.19;102160.63;5036273;28;20413;-58
2022/05/02 21:36:16;;;;;;;22.17;12.98;;;;;;;11.22;65.25;102169.13;5030721;28;20107;-59
2022/05/02 21:38:42;;;;;;;20.85;12.90;;;;;;;11.17;64.83;102168.09;5042058;28;20036;-58
2022/05/02 21:41:08;;;;;;;21.08;13.27;;;;;;;11.12;65.71;102166.19;5025944;28;20050;-60
2022/05/02 21:43:33;;;;;;;20.27;12.80;;;;;;;11.07;65.65;102163.44;5041415;28;20474;-58
2022/05/02 21:45:59;;;;;;;19.02;12.35;;;;;;;11.04;65.87;102165.94;5034571;28;20301;-59
2022/05/02 21:48:24;;;;;;;18.75;12.77;;;;;;;11.03;65.73;102165.91;5035315;28;20036;-59
2022/05/02 21:50:49;;;;;;;21.33;12.95;;;;;;;11.01;65.94;102163.25;5030160;28;21016;-60
2022/05/02 21:53:15;;;;;;;20.02;12.93;;;;;;;11.00;65.41;102158.88;5040144;28;20543;-60
2022/05/02 21:55:41;;;;;;;18.90;12.15;;;;;;;10.95;65.44;102160.44;5019162;28;20262;-60
2022/05/02 21:58:07;;;;;;;21.67;13.57;;;;;;;10.91;65.86;102167.31;5029076;28;20277;-56
2022/05/02 22:00:32;;;;;;;21.15;13.25;;;;;;;10.81;66.37;102164.31;5033752;28;20354;-60
2022/05/02 22:02:57;;;;;;;23.25;13.13;;;;;;;10.76;66.72;102171.13;5040919;28;20044;-57
2022/05/02 22:05:23;;;;;;;21.85;13.60;;;;;;;10.69;67.34;102166.53;5036446;28;20500;-58
2022/05/02 22:07:50;;;;;;;21.73;13.57;;;;;;;10.63;67.12;102167.22;5031584;28;20036;-57
2022/05/02 22:10:16;;;;;;;22.08;14.07;;;;;;;10.56;67.84;102171.31;5029042;28;20041;-58
2022/05/02 22:12:42;;;;;;;21.38;13.77;;;;;;;10.53;67.72;102175.56;5038725;28;20536;-58
2022/05/02 22:15:07;;;;;;;22.55;14.60;;;;;;;10.49;67.75;102164.13;5039089;28;20095;-59
2022/05/02 22:17:38;;;;;;;24.55;15.57;;;;;;;10.46;68.18;102173.56;5041158;28;20080;-59
2022/05/02 22:20:07;;;;;;;23.50;14.45;;;;;;;10.44;68.46;102168.31;5023688;28;20287;-58
2022/05/02 22:22:33;;;;;;;25.33;14.77;;;;;;;10.51;68.15;102165.06;5036719;28;20076;-58
2022/05/02 22:25:01;;;;;;;23.70;14.75;;;;;;;10.49;68.54;102161.53;5028123;28;20130;-60
2022/05/02 22:27:26;;;;;;;25.02;14.95;;;;;;;10.46;68.46;102156.22;5029170;28;21880;-59
2022/05/02 22:29:52;;;;;;;23.15;15.18;;;;;;;10.43;68.54;102156.09;5039235;28;20273;-58
2022/05/02 22:32:17;;;;;;;23.95;15.02;;;;;;;10.40;68.12;102160.34;5035464;28;20045;-59
2022/05/02 22:34:42;;;;;;;25.55;15.45;;;;;;;10.38;68.33;102156.78;5036636;28;20576;-58
2022/05/02 22:37:08;;;;;;;25.20;15.40;;;;;;;10.35;68.71;102164.50;5030779;28;20051;-57
2022/05/02 22:39:33;;;;;;;24.67;15.80;;;;;;;10.31;68.99;102158.28;5037647;28;20052;-60
2022/05/02 22:41:58;;;;;;;24.10;14.38;;;;;;;10.28;68.84;102159.91;5028771;28;20043;-59
2022/05/02 22:44:24;;;;;;;25.23;16.15;;;;;;;10.25;68.79;102160.66;5027155;28;20589;-59
2022/05/02 22:46:49;;;;;;;25.15;15.93;;;;;;;10.24;69.15;102158.94;5036642;28;20083;-59
2022/05/02 22:49:14;;;;;;;25.77;15.77;;;;;;;10.21;68.87;102158.81;5037888;28;20055;-59
2022/05/02 22:51:40;;;;;;;29.45;16.20;;;;;;;10.20;69.53;102158.75;5041804;28;20056;-59
2022/05/02 22:54:08;;;;;;;28.17;17.00;;;;;;;10.17;69.44;102154.31;5011812;28;20054;-59
2022/05/02 22:56:34;;;;;;;24.75;15.65;;;;;;;10.16;69.45;102152.50;5038572;28;20431;-59
2022/05/02 22:59:04;;;;;;;27.05;16.10;;;;;;;10.14;69.43;102152.44;5035746;28;20239;-60
2022/05/02 23:01:34;;;;;;;29.77;17.33;;;;;;;10.10;69.72;102158.41;5046910;28;20487;-59
2022/05/02 23:04:32;;;;;;;30.95;17.15;;;;;;;10.08;69.52;102152.22;5037715;28;20448;-58
2022/05/02 23:07:13;;;;;;;26.42;16.45;;;;;;;10.08;69.78;102151.34;5031769;28;20041;-57
2022/05/02 23:09:40;;;;;;;30.90;17.42;;;;;;;10.05;69.94;102159.97;5037845;28;20097;-59
2022/05/02 23:12:06;;;;;;;30.17;17.08;;;;;;;10.02;69.76;102162.44;5037799;28;20292;-58
2022/05/02 23:14:34;;;;;;;29.10;16.40;;;;;;;10.03;69.68;102152.91;5034285;28;20610;-60
2022/05/02 23:17:01;;;;;;;30.83;17.77;;;;;;;10.01;70.27;102154.56;5041530;28;20478;-57
2022/05/02 23:19:28;;;;;;;28.85;17.20;;;;;;;9.98;70.23;102152.75;5041628;28;20182;-57
2022/05/02 23:21:54;;;;;;;27.88;17.77;;;;;;;9.98;70.08;102149.25;5038741;28;20044;-57
2022/05/02 23:24:21;;;;;;;30.33;18.92;;;;;;;9.95;70.42;102154.34;5031238;28;20040;-57
2022/05/02 23:26:46;;;;;;;33.78;18.95;;;;;;;9.92;70.27;102152.53;5036108;28;20051;-59
2022/05/02 23:29:11;;;;;;;31.50;18.23;;;;;;;9.90;70.23;102145.47;5040135;28;20399;-58
2022/05/02 23:31:59;;;;;;;33.83;19.30;;;;;;;9.89;70.54;102151.50;5042909;28;20502;-57
2022/05/02 23:34:52;;;;;;;31.80;19.10;;;;;;;9.87;70.67;102141.06;5032798;28;20534;-59
2022/05/02 23:37:32;;;;;;;27.92;17.95;;;;;;;9.86;70.71;102141.88;5025830;28;20040;-59
2022/05/02 23:40:05;;;;;;;28.05;17.77;;;;;;;9.83;70.50;102146.97;5039186;28;20064;-58
2022/05/02 23:42:35;;;;;;;28.45;17.67;;;;;;;9.81;70.36;102143.44;5036477;28;20135;-61
2022/05/02 23:45:06;;;;;;;30.88;18.38;;;;;;;9.78;70.46;102146.81;5040439;28;20413;-59
2022/05/02 23:47:39;;;;;;;30.05;17.65;;;;;;;9.76;70.17;102145.84;5035657;28;20052;-58
2022/05/02 23:50:06;;;;;;;32.08;19.27;;;;;;;9.74;70.65;102142.31;5038043;28;20048;-58
2022/05/02 23:52:44;;;;;;;29.40;18.02;;;;;;;9.74;70.57;102146.66;5021537;28;20040;-59
2022/05/02 23:55:34;;;;;;;31.33;18.20;;;;;;;9.71;70.50;102139.59;5035727;28;20044;-57
2022/05/02 23:58:19;;;;;;;30.90;18.17;;;;;;;9.71;71.12;102151.72;5036840;28;20048;-58
